RKSI/ICN METAR and TAF weather

Enter ICAO airport designator
Station Type Date Time Source
RKSI METAR 2019/02/16 17:30 UTC NOAA

RKSI 161730Z 31008KT CAVOK M05/M13 Q1026 NOSIG


Station Type Date Time Source
RKSI Decoded METAR 2019/02/16 17:30 UTC NOAA

Incheon International Airport, Korea, South (RKSI) 37-28N 126-27E
Feb 16, 2019 - 12:30 PM EST / 2019.02.16 1730 UTC
Wind: from the NW (310 degrees) at 9 MPH (8 KT):0
Visibility: greater than 7 mile(s):0
Temperature: 23 F (-5 C)
Windchill: 14 F (-10 C):1
Dew Point: 8 F (-13 C)
Relative Humidity: 53%
Pressure (altimeter): 30.30 in. Hg (1026 hPa)
ob: RKSI 161730Z 31008KT CAVOK M05/M13 Q1026 NOSIG
cycle: 17

Station Type Date Time Source
RKSI TAF 2019/02/16 18:09 UTC NOAA

TAF RKSI 161700Z 1618/1724 33012KT CAVOK TNM06/1621Z TX03/1706Z TNM03/1721Z


Example: see airport list